Terminal Aerodrome Forecast
Issued by NWS

Home | Current Version | Previous Version | Text Only | Print | Product List | Glossary On
Versions: 1 2 3 4 5 6 7 8 9 10
594
FTUS44 KSJT 241135
TAFBBD
TAF
KBBD 241135Z 2412/2512 15006KT P6SM SKC
     FM241500 16012G20KT P6SM SCT250
     FM250000 16011KT P6SM SCT250
      AMD NOT SKED=

USA.gov is the U.S. government's official web portal to all federal, state and local government web resources and services.